Time;durP1;ratioP1;P1;durP2;ratioP2;P2;SDS_P1;SDS_P2;PMS_P1;PMS_P2;Temp;Humidity;BMP_temperature;BMP_pressure;BME280_temperature;BME280_humidity;BME280_pressure;Samples;Min_cycle;Max_cycle;Signal;HPM_P1;HPM_P2
2023/06/19 00:00:37;;;;;;;10.32;7.75;;;;;;;20.71;69.54;100779.97;5085836;28;20024;-69
2023/06/19 00:03:02;;;;;;;8.88;7.97;;;;;;;20.64;70.22;100788.44;5086405;28;20384;-69
2023/06/19 00:05:28;;;;;;;10.57;8.05;;;;;;;20.60;71.11;100792.22;5083461;28;20035;-69
2023/06/19 00:07:53;;;;;;;9.40;8.40;;;;;;;20.50;70.92;100784.88;5086040;28;20096;-69
2023/06/19 00:10:19;;;;;;;9.98;8.77;;;;;;;20.40;71.90;100789.03;5084664;28;20059;-69
2023/06/19 00:12:44;;;;;;;12.48;8.80;;;;;;;20.34;71.75;100794.78;5085648;28;20043;-69
2023/06/19 00:15:10;;;;;;;9.40;8.50;;;;;;;20.30;73.02;100790.59;5085797;28;20028;-69
2023/06/19 00:17:39;;;;;;;9.50;8.50;;;;;;;20.23;73.35;100800.75;5081293;28;20464;-69
2023/06/19 00:20:07;;;;;;;10.07;8.73;;;;;;;20.15;73.71;100804.84;5085190;28;20515;-69
2023/06/19 00:22:33;;;;;;;11.35;8.30;;;;;;;20.09;73.89;100811.38;5082994;28;20060;-69
2023/06/19 00:24:59;;;;;;;9.77;8.52;;;;;;;20.03;74.55;100809.13;5085948;28;20063;-69
2023/06/19 00:27:24;;;;;;;10.52;8.88;;;;;;;19.99;74.61;100816.41;5084978;28;20074;-69
2023/06/19 00:29:53;;;;;;;13.88;8.68;;;;;;;19.95;75.09;100819.34;5084903;28;20067;-69
2023/06/19 00:32:18;;;;;;;14.73;9.13;;;;;;;19.76;74.79;100801.13;5086176;28;20125;-69
2023/06/19 00:34:43;;;;;;;13.93;8.80;;;;;;;19.78;75.84;100812.44;5084541;28;20483;-69
2023/06/19 00:37:09;;;;;;;11.90;8.65;;;;;;;19.76;76.69;100831.06;5085763;28;20024;-69
2023/06/19 00:39:35;;;;;;;10.18;8.52;;;;;;;19.71;76.26;100819.06;5087062;28;20483;-69
2023/06/19 00:42:01;;;;;;;11.35;8.70;;;;;;;19.67;77.66;100836.06;5082696;28;20029;-69
2023/06/19 00:44:26;;;;;;;9.40;8.40;;;;;;;19.60;77.98;100832.91;5089206;28;20029;-69
2023/06/19 00:46:56;;;;;;;9.77;7.80;;;;;;;19.62;77.61;100844.28;5082559;28;20119;-69
2023/06/19 00:49:22;;;;;;;9.30;8.10;;;;;;;19.49;78.36;100836.22;5090193;28;20043;-69
2023/06/19 00:51:47;;;;;;;10.27;8.38;;;;;;;19.52;78.45;100843.09;5079992;28;20012;-69
2023/06/19 00:54:14;;;;;;;9.20;7.63;;;;;;;19.47;78.90;100842.53;5088664;28;20028;-69
2023/06/19 00:56:41;;;;;;;10.18;8.32;;;;;;;19.41;79.53;100846.41;5081283;28;20507;-69
2023/06/19 00:59:12;;;;;;;9.50;7.35;;;;;;;19.38;79.49;100844.78;5082320;28;20142;-69
2023/06/19 01:01:37;;;;;;;7.82;7.05;;;;;;;19.38;79.29;100859.81;5076512;28;20032;-69
2023/06/19 01:04:02;;;;;;;11.25;8.25;;;;;;;19.32;79.97;100855.72;5081738;28;20033;-69
2023/06/19 01:06:41;;;;;;;9.23;7.85;;;;;;;19.29;80.20;100850.66;5087737;28;20491;-69
2023/06/19 01:09:10;;;;;;;14.32;8.07;;;;;;;19.26;80.53;100842.91;5077029;28;20020;-69
2023/06/19 01:11:55;;;;;;;8.75;7.85;;;;;;;19.29;80.02;100847.13;5086915;28;20024;-69
2023/06/19 01:14:28;;;;;;;8.07;7.07;;;;;;;19.28;80.85;100851.56;5077880;28;20086;-69
2023/06/19 01:16:54;;;;;;;8.20;7.22;;;;;;;19.25;81.10;100858.84;5075528;28;20103;-69
2023/06/19 01:19:21;;;;;;;9.52;6.90;;;;;;;19.18;81.22;100847.78;5082050;28;20036;-68
2023/06/19 01:21:47;;;;;;;9.65;6.88;;;;;;;19.18;81.91;100861.00;5088044;28;20032;-69
2023/06/19 01:24:13;;;;;;;7.88;6.38;;;;;;;19.18;81.72;100859.19;5080187;28;20031;-69
2023/06/19 01:26:39;;;;;;;8.48;6.35;;;;;;;19.16;82.66;100860.22;5081413;28;20115;-69
2023/06/19 01:29:05;;;;;;;9.25;6.28;;;;;;;19.13;83.55;100860.44;5088802;28;20087;-69
2023/06/19 01:31:36;;;;;;;7.68;5.80;;;;;;;19.10;83.61;100855.31;5080545;28;20029;-69
2023/06/19 01:34:08;;;;;;;9.88;6.07;;;;;;;19.10;84.05;100865.91;5089542;28;20031;-69
2023/06/19 01:36:35;;;;;;;7.32;5.00;;;;;;;19.10;84.34;100857.97;5081075;28;20366;-69
2023/06/19 01:39:01;;;;;;;9.20;5.18;;;;;;;19.09;84.05;100853.59;5088601;28;20494;-69
2023/06/19 01:41:27;;;;;;;6.05;5.00;;;;;;;19.14;84.69;100868.25;5080830;28;20472;-69
2023/06/19 01:43:53;;;;;;;6.40;5.15;;;;;;;19.12;84.45;100859.56;5089172;28;20605;-69
2023/06/19 01:46:19;;;;;;;7.22;5.00;;;;;;;19.11;85.06;100867.59;5080872;28;20115;-69
2023/06/19 01:48:44;;;;;;;7.30;4.82;;;;;;;19.02;85.41;100876.88;5087342;28;20019;-69
2023/06/19 01:51:11;;;;;;;6.97;4.68;;;;;;;18.89;85.78;100857.41;5083809;28;20028;-69
2023/06/19 01:53:36;;;;;;;4.88;4.20;;;;;;;18.92;87.09;100881.00;5080025;28;20027;-69
2023/06/19 01:56:01;;;;;;;5.93;4.55;;;;;;;18.86;87.08;100876.91;5083988;28;20032;-69
2023/06/19 01:58:27;;;;;;;6.03;4.82;;;;;;;18.85;87.60;100883.16;5083683;28;20028;-69
2023/06/19 02:00:52;;;;;;;7.80;4.40;;;;;;;18.83;88.13;100884.16;5084027;28;20054;-68
2023/06/19 02:03:17;;;;;;;5.60;4.53;;;;;;;18.80;88.88;100890.50;5083648;28;20548;-68
2023/06/19 02:05:43;;;;;;;7.15;4.10;;;;;;;18.77;89.15;100885.41;5080856;28;20036;-69
2023/06/19 02:08:08;;;;;;;5.53;4.30;;;;;;;18.84;89.54;100892.03;5084191;28;20111;-69
2023/06/19 02:10:34;;;;;;;4.95;4.07;;;;;;;18.87;89.55;100891.84;5081230;28;20028;-69
2023/06/19 02:12:59;;;;;;;6.88;3.70;;;;;;;18.86;90.21;100898.06;5083427;28;20028;-69
2023/06/19 02:15:25;;;;;;;4.50;3.67;;;;;;;18.90;90.31;100907.53;5082009;28;20028;-69
2023/06/19 02:17:54;;;;;;;5.07;3.28;;;;;;;18.84;91.57;100896.47;5083843;28;20024;-69
2023/06/19 02:20:20;;;;;;;7.13;3.20;;;;;;;18.82;91.30;100893.88;5082790;28;20085;-69
2023/06/19 02:22:46;;;;;;;5.70;3.35;;;;;;;18.75;91.59;100895.19;5080833;28;20085;-69
2023/06/19 02:25:11;;;;;;;5.20;3.40;;;;;;;18.68;92.38;100905.22;5083886;28;20028;-69
2023/06/19 02:27:36;;;;;;;5.22;3.65;;;;;;;18.62;93.05;100907.34;5082500;28;20425;-69
2023/06/19 02:30:04;;;;;;;5.78;3.55;;;;;;;18.53;93.72;100887.56;5080653;28;20044;-69
2023/06/19 02:32:30;;;;;;;4.30;2.95;;;;;;;18.51;94.56;100897.38;5080599;28;20028;-69
2023/06/19 02:34:55;;;;;;;4.32;3.00;;;;;;;18.48;94.65;100892.28;5082512;28;20031;-69
2023/06/19 02:37:21;;;;;;;4.22;3.25;;;;;;;18.42;95.23;100906.66;5083930;28;20020;-69
2023/06/19 02:39:46;;;;;;;3.30;3.00;;;;;;;18.39;96.49;100900.69;5083639;28;20048;-69
2023/06/19 02:42:11;;;;;;;4.03;3.10;;;;;;;18.34;96.00;100902.72;5072472;28;20036;-69
2023/06/19 02:44:36;;;;;;;4.55;3.00;;;;;;;18.34;96.42;100902.72;5085387;28;20024;-68
2023/06/19 02:47:02;;;;;;;3.45;2.90;;;;;;;18.19;96.88;100883.31;5067039;28;20032;-69
2023/06/19 02:49:27;;;;;;;4.38;2.80;;;;;;;18.22;97.60;100894.56;5084903;28;20103;-69
2023/06/19 02:51:52;;;;;;;4.15;3.47;;;;;;;18.20;98.24;100909.63;5069933;28;20050;-69
2023/06/19 02:54:18;;;;;;;5.82;3.13;;;;;;;18.24;98.02;100912.94;5081597;28;20081;-69
2023/06/19 02:56:43;;;;;;;5.18;3.20;;;;;;;18.18;98.72;100914.13;5082774;28;20024;-69
2023/06/19 02:59:08;;;;;;;5.53;3.50;;;;;;;18.11;99.50;100919.81;5080252;28;20137;-69
2023/06/19 03:01:34;;;;;;;5.28;3.15;;;;;;;18.11;100.00;100919.81;5083025;28;20032;-69
2023/06/19 03:03:59;;;;;;;5.07;3.90;;;;;;;18.04;100.00;100915.81;5084904;28;20508;-68
2023/06/19 03:06:26;;;;;;;3.55;2.95;;;;;;;18.08;100.00;100927.88;5081316;28;20020;-69
2023/06/19 03:08:51;;;;;;;5.78;3.17;;;;;;;18.06;100.00;100919.22;5089539;28;20039;-69
2023/06/19 03:11:16;;;;;;;4.25;3.28;;;;;;;18.02;100.00;100929.94;5084477;28;20472;-69
2023/06/19 03:13:53;;;;;;;5.15;3.50;;;;;;;18.01;100.00;100933.47;5092385;28;20036;-69
2023/06/19 03:16:20;;;;;;;4.30;3.13;;;;;;;17.98;100.00;100938.94;5079511;28;20434;-69
2023/06/19 03:18:46;;;;;;;4.32;3.47;;;;;;;17.97;100.00;100937.22;5085094;28;20037;-69
2023/06/19 03:21:14;;;;;;;3.83;3.15;;;;;;;17.97;100.00;100939.84;5088306;28;20107;-69
2023/06/19 03:23:43;;;;;;;3.67;3.08;;;;;;;17.95;100.00;100928.56;5083674;28;20041;-69
2023/06/19 03:26:10;;;;;;;5.30;3.75;;;;;;;17.93;100.00;100925.13;5087715;28;20027;-69
2023/06/19 03:28:35;;;;;;;4.68;3.90;;;;;;;18.02;100.00;100939.63;5086744;28;20048;-69
2023/06/19 03:31:03;;;;;;;6.22;3.80;;;;;;;18.09;100.00;100941.00;5085092;28;20123;-69
2023/06/19 03:33:31;;;;;;;4.85;3.35;;;;;;;18.07;100.00;100937.59;5087039;28;20069;-69
2023/06/19 03:35:56;;;;;;;4.32;3.75;;;;;;;18.04;100.00;100942.19;5084839;28;20080;-69
2023/06/19 03:38:22;;;;;;;8.30;4.10;;;;;;;17.98;100.00;100935.44;5084136;28;20028;-69
2023/06/19 03:40:47;;;;;;;4.80;3.90;;;;;;;17.98;100.00;100949.50;5087032;28;20020;-69
2023/06/19 03:43:12;;;;;;;4.78;4.28;;;;;;;17.98;100.00;100951.25;5086424;28;20403;-68
2023/06/19 03:45:38;;;;;;;5.43;3.90;;;;;;;17.97;100.00;100950.41;5085786;28;20036;-68
2023/06/19 03:48:04;;;;;;;7.47;4.07;;;;;;;18.11;100.00;100956.75;5085975;28;20024;-69
2023/06/19 03:50:29;;;;;;;5.53;4.50;;;;;;;18.21;100.00;100964.09;5086012;28;20036;-69
2023/06/19 03:52:54;;;;;;;4.95;4.18;;;;;;;18.33;100.00;100954.66;5085923;28;20024;-69
2023/06/19 03:55:20;;;;;;;4.40;3.83;;;;;;;18.40;100.00;100971.88;5086643;28;20391;-68
2023/06/19 03:57:45;;;;;;;5.07;3.47;;;;;;;18.49;100.00;100971.38;5086586;28;20035;-69
2023/06/19 04:00:12;;;;;;;6.53;4.00;;;;;;;18.52;100.00;100974.78;5085665;28;20380;-68
2023/06/19 04:02:39;;;;;;;6.50;3.88;;;;;;;18.58;100.00;100982.38;5075949;28;20119;-69
2023/06/19 04:05:05;;;;;;;5.07;4.10;;;;;;;18.61;100.00;100987.50;5086168;28;20050;-69
2023/06/19 04:07:31;;;;;;;6.85;4.72;;;;;;;18.62;100.00;100982.13;5083323;28;20052;-69
2023/06/19 04:09:57;;;;;;;5.35;4.18;;;;;;;18.67;100.00;100987.13;5086852;28;20020;-69
2023/06/19 04:12:22;;;;;;;6.63;4.13;;;;;;;18.71;100.00;100988.69;5083079;28;20467;-69
2023/06/19 04:14:47;;;;;;;6.65;4.07;;;;;;;18.78;100.00;100998.00;5086301;28;20031;-69
2023/06/19 04:17:20;;;;;;;7.00;4.22;;;;;;;18.74;100.00;100990.31;5086421;28;20093;-69
2023/06/19 04:19:45;;;;;;;5.15;4.45;;;;;;;18.78;100.00;100997.16;5082987;28;20070;-69
2023/06/19 04:22:10;;;;;;;6.93;4.70;;;;;;;18.80;100.00;100993.50;5086603;28;20047;-69
2023/06/19 04:24:36;;;;;;;6.32;4.28;;;;;;;18.82;100.00;101002.19;5083656;28;20401;-69
2023/06/19 04:27:01;;;;;;;12.30;4.53;;;;;;;18.87;100.00;101000.16;5085359;28;20502;-69
2023/06/19 04:29:31;;;;;;;5.40;4.30;;;;;;;18.89;100.00;101006.19;5085681;28;20040;-69
2023/06/19 04:31:59;;;;;;;7.68;4.18;;;;;;;18.91;100.00;101000.81;5084984;28;20070;-69
2023/06/19 04:34:25;;;;;;;7.63;4.70;;;;;;;18.93;100.00;101013.03;5085889;28;20078;-69
2023/06/19 04:36:50;;;;;;;6.63;4.43;;;;;;;18.94;100.00;101012.06;5083311;28;20029;-69
2023/06/19 04:39:16;;;;;;;7.75;4.60;;;;;;;18.95;100.00;101013.75;5088977;28;20024;-69
2023/06/19 04:41:43;;;;;;;9.05;4.50;;;;;;;18.93;100.00;101012.13;5081396;28;20029;-69
2023/06/19 04:44:11;;;;;;;7.07;5.00;;;;;;;19.00;100.00;101015.28;5089634;28;20012;-69
2023/06/19 04:46:40;;;;;;;5.32;4.82;;;;;;;19.02;100.00;101027.47;5075026;28;20051;-69
2023/06/19 04:49:05;;;;;;;5.78;4.65;;;;;;;19.03;100.00;101018.66;5089003;28;20032;-69
2023/06/19 04:51:32;;;;;;;6.82;4.60;;;;;;;19.08;100.00;101029.78;5081637;28;20024;-69
2023/06/19 04:53:58;;;;;;;6.53;4.53;;;;;;;19.05;100.00;101014.09;5079353;28;20021;-69
2023/06/19 04:56:24;;;;;;;7.85;4.80;;;;;;;19.16;100.00;101018.78;5089753;28;20387;-69
2023/06/19 04:58:51;;;;;;;5.45;4.90;;;;;;;19.20;100.00;101030.91;5082447;28;20472;-69
2023/06/19 05:01:25;;;;;;;6.10;4.65;;;;;;;19.26;100.00;101033.19;5082620;28;20103;-69
2023/06/19 05:03:50;;;;;;;6.28;4.95;;;;;;;19.30;100.00;101016.22;5086246;28;20074;-69
2023/06/19 05:06:16;;;;;;;6.47;4.95;;;;;;;19.37;100.00;101022.84;5082564;28;20056;-69
2023/06/19 05:08:42;;;;;;;7.70;5.72;;;;;;;19.37;100.00;101025.50;5086906;28;20539;-69
2023/06/19 05:11:07;;;;;;;9.32;5.60;;;;;;;19.41;100.00;101029.66;5082122;28;20101;-69
2023/06/19 05:13:32;;;;;;;9.48;5.28;;;;;;;19.45;100.00;101032.97;5087654;28;20032;-69
2023/06/19 05:15:58;;;;;;;7.90;4.97;;;;;;;19.49;100.00;101037.19;5080927;28;20097;-69
2023/06/19 05:18:23;;;;;;;7.22;4.88;;;;;;;19.57;100.00;101034.06;5086865;28;20035;-69
2023/06/19 05:20:48;;;;;;;7.03;5.00;;;;;;;19.60;100.00;101044.47;5082201;28;20032;-69
2023/06/19 05:23:14;;;;;;;7.50;5.32;;;;;;;19.62;100.00;101045.25;5084822;28;20028;-69
2023/06/19 05:25:39;;;;;;;6.38;5.45;;;;;;;19.65;100.00;101045.06;5087814;28;20036;-69
2023/06/19 05:28:04;;;;;;;7.65;6.00;;;;;;;19.71;100.00;101052.66;5083342;28;20032;-70
2023/06/19 05:30:30;;;;;;;8.15;5.15;;;;;;;19.73;100.00;101045.50;5083877;28;20039;-69
2023/06/19 05:32:55;;;;;;;6.30;5.28;;;;;;;19.71;99.86;101047.38;5082282;28;20024;-69
2023/06/19 05:35:25;;;;;;;7.90;5.82;;;;;;;19.70;100.00;101053.59;5085089;28;20111;-69
2023/06/19 05:37:50;;;;;;;7.72;6.05;;;;;;;19.66;99.18;101056.53;5082046;28;20024;-69
2023/06/19 05:40:16;;;;;;;7.63;6.20;;;;;;;19.60;99.34;101053.25;5084838;28;20077;-69
2023/06/19 05:42:41;;;;;;;9.68;5.80;;;;;;;19.67;99.97;101061.72;5084475;28;20028;-69
2023/06/19 05:45:10;;;;;;;6.78;5.28;;;;;;;19.77;100.00;101056.75;5082025;28;20032;-69
2023/06/19 05:47:35;;;;;;;8.25;5.38;;;;;;;19.88;98.21;101057.84;5084365;28;20031;-69
2023/06/19 05:50:00;;;;;;;10.15;6.28;;;;;;;19.97;97.32;101058.22;5083107;28;20419;-69
2023/06/19 05:52:25;;;;;;;7.90;6.32;;;;;;;19.91;97.71;101059.41;5081315;28;20020;-69
2023/06/19 05:54:53;;;;;;;10.93;6.65;;;;;;;19.91;98.23;101062.06;5084700;28;20035;-69
2023/06/19 05:57:20;;;;;;;8.85;5.82;;;;;;;19.95;97.79;101060.13;5073263;28;20040;-69
2023/06/19 05:59:50;;;;;;;9.60;6.63;;;;;;;19.93;97.19;101062.00;5083478;28;20062;-69
2023/06/19 06:02:17;;;;;;;6.78;5.88;;;;;;;19.91;97.31;101059.41;5081576;28;20418;-69
2023/06/19 06:04:43;;;;;;;8.70;6.07;;;;;;;19.91;97.79;101063.88;5083393;28;20063;-69
2023/06/19 06:07:09;;;;;;;11.05;6.38;;;;;;;19.91;96.29;101055.94;5083146;28;20052;-69
2023/06/19 06:09:34;;;;;;;9.32;6.68;;;;;;;19.94;95.66;101076.91;5082582;28;20039;-69
2023/06/19 06:12:00;;;;;;;7.55;6.20;;;;;;;20.04;95.65;101080.72;5083446;28;20032;-69
2023/06/19 06:14:26;;;;;;;6.75;6.05;;;;;;;20.17;93.93;101092.28;5081561;28;20029;-69
2023/06/19 06:16:51;;;;;;;6.90;5.72;;;;;;;20.29;92.54;101091.56;5084318;28;20020;-69
2023/06/19 06:19:17;;;;;;;7.32;6.10;;;;;;;20.38;92.23;101097.25;5083024;28;20025;-69
2023/06/19 06:21:42;;;;;;;7.35;5.78;;;;;;;20.53;91.95;101096.34;5082470;28;20049;-69
2023/06/19 06:24:10;;;;;;;8.25;7.25;;;;;;;20.73;86.85;101098.63;5085390;28;20074;-69
2023/06/19 06:26:36;;;;;;;7.57;6.88;;;;;;;20.75;86.43;101098.53;5079658;28;20109;-69
2023/06/19 06:29:02;;;;;;;8.93;7.85;;;;;;;20.74;86.12;101097.69;5087139;28;20066;-69
2023/06/19 06:31:27;;;;;;;10.57;8.45;;;;;;;20.72;84.99;101104.84;5080430;28;20024;-69
2023/06/19 06:33:52;;;;;;;8.40;7.60;;;;;;;20.69;84.75;101099.75;5086971;28;20032;-69
2023/06/19 06:36:18;;;;;;;9.40;8.40;;;;;;;20.70;85.76;101111.19;5080767;28;20016;-68
2023/06/19 06:38:44;;;;;;;9.45;8.55;;;;;;;20.72;84.46;101107.50;5086578;28;20035;-69
2023/06/19 06:41:09;;;;;;;11.30;9.10;;;;;;;20.72;83.84;101125.19;5080653;28;20036;-69
2023/06/19 06:43:34;;;;;;;10.40;8.82;;;;;;;20.72;84.77;101126.03;5088855;28;20475;-69
2023/06/19 06:46:00;;;;;;;9.85;8.45;;;;;;;20.86;83.98;101127.84;5090005;28;20127;-69
2023/06/19 06:48:25;;;;;;;9.55;8.55;;;;;;;21.08;81.98;101122.06;5088543;28;20046;-69
2023/06/19 06:50:52;;;;;;;12.07;8.45;;;;;;;21.25;81.43;101139.53;5090206;28;20486;-69
2023/06/19 06:53:20;;;;;;;10.52;8.57;;;;;;;21.39;80.82;101141.38;5086237;28;20024;-69
2023/06/19 06:55:45;;;;;;;15.63;9.35;;;;;;;21.53;77.99;101141.31;5091713;28;20028;-69
2023/06/19 06:58:13;;;;;;;10.85;8.98;;;;;;;21.62;78.25;101129.28;5089832;28;20073;-69
2023/06/19 07:00:38;;;;;;;13.98;9.32;;;;;;;21.61;77.23;101140.81;5086534;28;20488;-69
2023/06/19 07:03:03;;;;;;;12.70;8.95;;;;;;;21.58;79.05;101146.31;5090865;28;20067;-69
2023/06/19 07:05:29;;;;;;;9.82;8.70;;;;;;;21.54;78.93;101143.00;5087725;28;20043;-69
2023/06/19 07:07:58;;;;;;;13.43;8.50;;;;;;;21.37;78.36;101138.81;5089830;28;20024;-69
2023/06/19 07:10:23;;;;;;;10.15;9.05;;;;;;;21.31;76.09;101148.91;5089546;28;20500;-69
2023/06/19 07:12:48;;;;;;;10.32;9.40;;;;;;;21.18;76.75;101152.34;5080113;28;20050;-69
2023/06/19 07:15:14;;;;;;;16.40;9.73;;;;;;;21.26;77.31;101157.19;5089370;28;20024;-69
2023/06/19 07:17:39;;;;;;;12.32;8.63;;;;;;;21.39;78.45;101162.59;5087530;28;20020;-69
2023/06/19 07:20:06;;;;;;;15.07;10.15;;;;;;;21.49;77.48;101158.41;5090330;28;20108;-69
2023/06/19 07:22:32;;;;;;;13.60;9.60;;;;;;;21.58;75.08;101164.88;5087435;28;20035;-69
2023/06/19 07:24:57;;;;;;;10.30;9.02;;;;;;;21.46;75.79;101169.19;5089842;28;20020;-69
2023/06/19 07:27:23;;;;;;;9.60;8.50;;;;;;;21.50;76.55;101170.69;5090077;28;20185;-69
2023/06/19 07:29:48;;;;;;;10.75;9.13;;;;;;;21.49;76.54;101169.84;5087195;28;20040;-69
2023/06/19 07:32:14;;;;;;;9.38;8.48;;;;;;;21.62;75.03;101174.38;5090260;28;20371;-69
2023/06/19 07:34:39;;;;;;;9.48;7.95;;;;;;;21.66;74.36;101175.88;5088803;28;20033;-69
2023/06/19 07:37:04;;;;;;;8.95;8.05;;;;;;;21.87;74.82;101177.09;5088483;28;20031;-69
2023/06/19 07:39:30;;;;;;;9.10;8.13;;;;;;;21.92;74.01;101179.47;5090544;28;20029;-69
2023/06/19 07:41:56;;;;;;;11.20;8.60;;;;;;;21.88;74.13;101170.88;5087444;28;20036;-69
2023/06/19 07:44:21;;;;;;;10.05;8.60;;;;;;;22.09;74.05;101184.50;5092595;28;20073;-69
2023/06/19 07:46:46;;;;;;;10.05;7.78;;;;;;;22.11;73.32;101184.44;5086418;28;20165;-69
2023/06/19 07:49:12;;;;;;;9.00;8.10;;;;;;;22.02;72.35;101166.47;5093816;28;20032;-72
2023/06/19 07:51:37;;;;;;;10.57;7.45;;;;;;;21.91;73.00;101172.47;5085313;28;20035;-69
2023/06/19 07:54:02;;;;;;;8.68;7.88;;;;;;;21.81;73.05;101179.31;5083761;28;20029;-69
2023/06/19 07:56:32;;;;;;;10.80;7.47;;;;;;;21.99;73.38;101178.13;5085972;28;20024;-69
2023/06/19 07:58:57;;;;;;;12.02;7.70;;;;;;;22.24;73.32;101190.66;5087978;28;20521;-69
2023/06/19 08:01:22;;;;;;;12.25;8.07;;;;;;;22.38;68.59;101184.41;5083388;28;20491;-69
2023/06/19 08:03:47;;;;;;;10.98;7.85;;;;;;;22.51;69.35;101173.81;5083494;28;20040;-69
2023/06/19 08:06:13;;;;;;;9.13;7.68;;;;;;;22.63;67.03;101186.25;5082691;28;20426;-69
2023/06/19 08:08:38;;;;;;;9.95;6.88;;;;;;;22.73;68.76;101191.78;5089361;28;20037;-69
2023/06/19 08:11:03;;;;;;;12.93;7.35;;;;;;;22.79;68.17;101186.03;5083385;28;20029;-69
2023/06/19 08:13:28;;;;;;;10.95;7.90;;;;;;;22.84;67.31;101197.19;5087998;28;20035;-69
2023/06/19 08:15:54;;;;;;;12.30;8.13;;;;;;;22.99;67.08;101196.19;5083262;28;20032;-69
2023/06/19 08:18:19;;;;;;;9.00;7.15;;;;;;;23.05;66.68;101182.47;5087164;28;20023;-69
2023/06/19 08:20:44;;;;;;;10.02;7.60;;;;;;;23.28;67.25;101178.16;5083774;28;20040;-69
2023/06/19 08:23:10;;;;;;;9.93;7.95;;;;;;;23.42;66.02;101177.16;5086384;28;20368;-69
2023/06/19 08:25:35;;;;;;;11.95;7.47;;;;;;;23.52;65.91;101177.34;5085367;28;20027;-69
2023/06/19 08:28:00;;;;;;;15.10;7.45;;;;;;;23.70;64.06;101167.19;5084595;28;20020;-70
2023/06/19 08:30:26;;;;;;;8.80;7.22;;;;;;;23.79;63.64;101182.47;5086146;28;20024;-69
2023/06/19 08:32:51;;;;;;;8.20;7.15;;;;;;;23.85;62.70;101191.84;5083470;28;20025;-69
2023/06/19 08:35:16;;;;;;;11.63;7.63;;;;;;;;;;5086104;28;20024;-69
2023/06/19 08:37:41;;;;;;;12.33;7.80;;;;;;;23.75;61.93;101202.31;5085088;28;20510;-69
2023/06/19 08:40:11;;;;;;;11.18;7.70;;;;;;;23.66;63.66;101211.78;5084066;28;20510;-69
2023/06/19 08:42:38;;;;;;;9.20;7.93;;;;;;;23.49;62.86;101205.03;5085773;28;20050;-69
2023/06/19 08:45:06;;;;;;;13.20;7.55;;;;;;;23.54;63.27;101210.88;5084082;28;20464;-69
2023/06/19 08:47:32;;;;;;;13.25;8.30;;;;;;;23.74;62.48;101220.09;5084507;28;20455;-69
2023/06/19 08:49:58;;;;;;;10.40;8.65;;;;;;;23.99;60.79;101215.63;5084832;28;20031;-69
2023/06/19 08:52:23;;;;;;;10.23;7.35;;;;;;;24.14;60.51;101211.84;5084172;28;20020;-69
2023/06/19 08:54:49;;;;;;;12.25;7.50;;;;;;;24.28;58.98;101221.44;5084963;28;20035;-70
2023/06/19 08:57:14;;;;;;;8.88;7.45;;;;;;;24.48;58.54;101233.28;5082610;28;20103;-69
2023/06/19 08:59:47;;;;;;;10.90;7.50;;;;;;;24.76;57.10;101234.72;5085415;28;20032;-70
2023/06/19 09:02:13;;;;;;;10.20;8.38;;;;;;;24.84;55.88;101228.78;5082343;28;20123;-69
2023/06/19 09:04:38;;;;;;;11.88;9.05;;;;;;;24.76;55.72;101232.03;5085334;28;20107;-70
2023/06/19 09:07:04;;;;;;;10.20;7.73;;;;;;;24.72;57.10;101226.09;5084848;28;20028;-69
2023/06/19 09:09:29;;;;;;;9.40;8.38;;;;;;;24.58;57.42;101225.44;5082453;28;20274;-70
2023/06/19 09:12:03;;;;;;;9.45;7.50;;;;;;;24.59;55.85;101244.00;5085399;28;20024;-69
2023/06/19 09:14:35;;;;;;;9.70;7.97;;;;;;;24.63;58.65;101225.97;5082339;28;20111;-70
2023/06/19 09:17:03;;;;;;;14.35;8.13;;;;;;;24.60;56.17;101239.50;5085375;28;20028;-70
2023/06/19 09:19:28;;;;;;;12.13;8.90;;;;;;;24.32;56.67;101241.56;5082513;28;20531;-69
2023/06/19 09:21:59;;;;;;;9.23;8.27;;;;;;;24.33;56.78;101234.41;5084293;28;20127;-69
2023/06/19 09:24:37;;;;;;;8.98;7.20;;;;;;;24.34;55.91;101249.44;5084245;28;20029;-70
2023/06/19 09:27:13;;;;;;;12.75;7.18;;;;;;;24.38;58.24;101246.44;5069700;28;20097;-69
2023/06/19 09:30:06;;;;;;;18.70;8.82;;;;;;;24.38;55.95;101251.75;5081863;28;20047;-69
2023/06/19 09:32:31;;;;;;;12.55;9.27;;;;;;;24.22;56.24;101254.72;5073437;28;20123;-69
2023/06/19 09:35:00;;;;;;;13.10;8.20;;;;;;;24.23;56.05;101253.78;5083236;28;20115;-70
2023/06/19 09:37:27;;;;;;;9.43;7.45;;;;;;;24.41;55.30;101262.22;5083677;28;20541;-70
2023/06/19 09:39:55;;;;;;;11.45;8.38;;;;;;;24.32;55.10;101267.34;5082795;28;20032;-69
2023/06/19 09:42:28;;;;;;;11.90;7.90;;;;;;;24.37;56.20;101260.72;5081158;28;20031;-69
2023/06/19 09:44:58;;;;;;;14.15;9.20;;;;;;;24.52;54.08;101264.06;5080623;28;20464;-69
2023/06/19 09:47:26;;;;;;;20.27;9.05;;;;;;;24.67;54.93;101262.06;5069463;28;20536;-69
2023/06/19 09:49:55;;;;;;;12.68;9.75;;;;;;;24.87;53.44;101261.38;5083519;28;20028;-69
2023/06/19 09:52:23;;;;;;;14.73;9.43;;;;;;;25.09;53.74;101251.72;5082715;28;20021;-69
2023/06/19 09:54:52;;;;;;;12.93;9.93;;;;;;;25.25;53.29;101249.59;5084511;28;20497;-69
2023/06/19 09:57:18;;;;;;;14.98;9.95;;;;;;;25.38;52.20;101257.47;5083049;28;20468;-69
2023/06/19 09:59:49;;;;;;;13.98;9.82;;;;;;;25.45;51.31;101256.84;5084185;28;20028;-69
2023/06/19 10:02:20;;;;;;;16.15;8.68;;;;;;;25.34;51.82;101256.00;5081542;28;20456;-69
2023/06/19 10:04:55;;;;;;;10.90;8.45;;;;;;;25.29;50.34;101259.03;5083418;28;20024;-69
2023/06/19 10:07:23;;;;;;;10.45;7.88;;;;;;;24.88;47.85;101262.22;5081722;28;20024;-69
2023/06/19 10:10:04;;;;;;;12.05;8.43;;;;;;;24.87;49.96;101268.53;5084229;28;20023;-69
2023/06/19 10:12:43;;;;;;;11.18;7.90;;;;;;;24.96;51.06;101271.34;5080442;28;20027;-70
2023/06/19 10:15:24;;;;;;;10.63;8.00;;;;;;;25.23;50.82;101260.34;5084450;28;20035;-69
2023/06/19 10:17:59;;;;;;;9.73;7.72;;;;;;;25.50;50.52;101267.16;5081121;28;20016;-69
2023/06/19 10:20:37;;;;;;;11.23;7.35;;;;;;;25.72;49.60;101260.94;5083667;28;20546;-69
2023/06/19 10:23:08;;;;;;;10.15;7.00;;;;;;;25.91;47.82;101266.53;5075533;28;20357;-69
2023/06/19 10:25:42;;;;;;;9.38;7.35;;;;;;;26.00;48.60;101272.94;5083002;28;20035;-70
2023/06/19 10:28:24;;;;;;;9.05;6.97;;;;;;;26.28;49.00;101273.31;5075652;28;20349;-69
2023/06/19 10:30:54;;;;;;;11.00;7.28;;;;;;;26.46;47.10;101276.31;5082800;28;20036;-70
2023/06/19 10:33:19;;;;;;;9.55;8.05;;;;;;;26.72;46.53;101264.28;5083472;28;20016;-69
2023/06/19 10:35:44;;;;;;;12.48;8.77;;;;;;;27.00;45.25;101262.75;5083637;28;20056;-69
2023/06/19 10:38:10;;;;;;;10.07;8.10;;;;;;;27.13;46.02;101261.69;5082022;28;20051;-69
2023/06/19 10:40:38;;;;;;;12.98;8.07;;;;;;;26.98;46.02;101242.47;5082614;28;20324;-69
2023/06/19 10:43:07;;;;;;;10.52;7.30;;;;;;;27.17;46.02;101265.81;5082407;28;20028;-69
2023/06/19 10:45:32;;;;;;;8.73;7.13;;;;;;;27.28;44.79;101268.44;5083464;28;20020;-69
2023/06/19 10:48:02;;;;;;;10.95;6.97;;;;;;;27.24;45.55;101265.19;5081826;28;20028;-70
2023/06/19 10:50:27;;;;;;;8.02;6.68;;;;;;;27.26;45.20;101265.88;5072249;28;20016;-70
2023/06/19 10:52:56;;;;;;;13.70;9.13;;;;;;;27.21;44.42;101269.97;5083419;28;20036;-70
2023/06/19 10:55:21;;;;;;;10.75;8.02;;;;;;;27.07;44.40;101265.75;5080363;28;20053;-69
2023/06/19 10:57:48;;;;;;;9.52;8.43;;;;;;;27.03;45.13;101258.97;5083015;28;20024;-70
2023/06/19 11:00:25;;;;;;;10.70;8.10;;;;;;;26.92;46.56;101261.75;5082022;28;20443;-69
2023/06/19 11:02:50;;;;;;;9.73;8.07;;;;;;;26.82;45.53;101250.97;5077918;28;20043;-69
2023/06/19 11:05:16;;;;;;;12.57;9.50;;;;;;;26.80;46.11;101251.09;5083553;28;20032;-69
2023/06/19 11:07:42;;;;;;;10.38;9.20;;;;;;;26.75;45.21;101258.69;5080124;28;20024;-70
2023/06/19 11:10:07;;;;;;;12.68;8.77;;;;;;;26.98;45.83;101262.06;5083701;28;20028;-69
2023/06/19 11:12:35;;;;;;;9.63;8.40;;;;;;;27.20;47.17;101249.50;5081109;28;20040;-69
2023/06/19 11:15:05;;;;;;;9.75;8.40;;;;;;;27.37;46.32;101246.22;5082716;28;20023;-70
2023/06/19 11:17:31;;;;;;;8.88;7.95;;;;;;;27.60;45.08;101240.63;5080877;28;20077;-70
2023/06/19 11:19:57;;;;;;;11.40;8.80;;;;;;;27.58;43.52;101239.94;5083672;28;20110;-70